Time;durP1;ratioP1;P1;durP2;ratioP2;P2;SDS_P1;SDS_P2;PMS_P1;PMS_P2;Temp;Humidity;BMP_temperature;BMP_pressure;BME280_temperature;BME280_humidity;BME280_pressure;Samples;Min_cycle;Max_cycle;Signal;HPM_P1;HPM_P2
2023/08/10 00:00:15;;;;;;;5.18;2.45;;;;;;;-146.25;100.00;52137.06;2095438;28;33634;-72
2023/08/10 00:01:18;;;;;;;6.70;2.72;;;;;;;-146.25;100.00;52179.63;2088075;28;20045;-71
2023/08/10 00:02:19;;;;;;;7.00;3.08;;;;;;;-146.25;100.00;52133.00;2088025;28;37625;-71
2023/08/10 00:03:21;;;;;;;5.95;3.20;;;;;;;-146.25;100.00;52189.78;2104324;28;34766;-72
2023/08/10 00:04:25;;;;;;;8.20;3.25;;;;;;;-146.25;100.00;52159.34;2104589;28;20818;-71
2023/08/10 00:05:27;;;;;;;7.47;3.72;;;;;;;-146.25;100.00;52157.34;2104194;28;31739;-69
2023/08/10 00:06:30;;;;;;;6.50;3.03;;;;;;;-146.25;100.00;52175.56;2097147;28;20802;-69
2023/08/10 00:07:34;;;;;;;8.82;3.95;;;;;;;-146.25;100.00;52153.28;2096314;28;37078;-67
2023/08/10 00:08:38;;;;;;;4.68;3.20;;;;;;;-146.25;100.00;52145.16;2096478;28;32745;-69
2023/08/10 00:09:40;;;;;;;7.38;3.30;;;;;;;-146.25;100.00;52167.47;2096428;28;36036;-69
2023/08/10 00:10:42;;;;;;;5.80;3.05;;;;;;;-146.25;100.00;52193.81;2095608;28;33808;-69
2023/08/10 00:11:43;;;;;;;7.57;3.70;;;;;;;-146.25;100.00;52120.84;2096242;28;30239;-68
2023/08/10 00:12:45;;;;;;;7.43;3.50;;;;;;;-146.25;100.00;52143.13;2103813;28;36412;-69
2023/08/10 00:13:47;;;;;;;5.88;4.50;;;;;;;-146.25;100.00;52183.69;2096655;28;32449;-69
2023/08/10 00:14:49;;;;;;;8.75;4.40;;;;;;;-146.25;100.00;52147.19;2096340;28;35039;-71
2023/08/10 00:15:51;;;;;;;7.03;3.80;;;;;;;-146.25;100.00;52126.91;2096264;28;35627;-70
2023/08/10 00:16:52;;;;;;;5.25;3.15;;;;;;;-146.25;100.00;52157.34;2096477;28;31107;-70
2023/08/10 00:17:54;;;;;;;7.05;3.95;;;;;;;-146.25;100.00;52141.13;2096657;28;35585;-70
2023/08/10 00:18:56;;;;;;;6.63;3.65;;;;;;;-146.25;100.00;52155.31;2096392;28;30141;-72
2023/08/10 00:20:00;;;;;;;11.85;3.80;;;;;;;-146.25;100.00;52122.88;2095405;28;34475;-71
2023/08/10 00:21:02;;;;;;;9.65;4.43;;;;;;;-146.25;100.00;52116.78;2087889;28;31023;-70
2023/08/10 00:22:04;;;;;;;8.73;4.45;;;;;;;-146.25;100.00;52151.25;2095875;28;33983;-71
2023/08/10 00:23:06;;;;;;;7.20;3.70;;;;;;;-146.25;100.00;52169.50;2095959;28;35954;-71
2023/08/10 00:24:08;;;;;;;8.55;4.13;;;;;;;-146.25;100.00;52149.22;2096707;28;33978;-71
2023/08/10 00:25:10;;;;;;;6.47;3.60;;;;;;;-146.25;100.00;52149.22;2096180;28;37352;-70
2023/08/10 00:26:11;;;;;;;9.80;3.58;;;;;;;-146.25;100.00;52145.16;2096199;28;33328;-71
2023/08/10 00:27:14;;;;;;;7.15;4.05;;;;;;;-146.25;100.00;52149.22;2096514;28;20041;-71
2023/08/10 00:28:16;;;;;;;7.55;3.65;;;;;;;-146.25;100.00;52177.59;2088135;28;20080;-71
2023/08/10 00:29:19;;;;;;;5.47;4.00;;;;;;;-146.25;100.00;52183.69;2087455;28;25159;-70
2023/08/10 00:30:23;;;;;;;7.32;3.28;;;;;;;-146.25;100.00;52167.47;2096496;28;20048;-70
2023/08/10 00:31:24;;;;;;;7.63;3.78;;;;;;;-146.25;100.00;52159.34;2096370;28;26995;-71
2023/08/10 00:32:26;;;;;;;6.47;3.38;;;;;;;-146.25;100.00;52165.44;2095893;28;20064;-71
2023/08/10 00:33:30;;;;;;;7.68;3.40;;;;;;;-146.25;100.00;52133.00;2095376;28;28696;-70
2023/08/10 00:34:34;;;;;;;8.68;3.67;;;;;;;-146.25;100.00;52153.28;2096111;28;20096;-70
2023/08/10 00:35:39;;;;;;;6.38;3.67;;;;;;;-146.25;100.00;52165.44;2096095;28;20053;-71
2023/08/10 00:36:41;;;;;;;6.82;3.38;;;;;;;-146.25;100.00;52120.84;2096906;28;21896;-71
2023/08/10 00:37:43;;;;;;;7.07;3.33;;;;;;;-146.25;100.00;52128.94;2096680;28;22388;-72
2023/08/10 00:38:45;;;;;;;12.73;4.40;;;;;;;-146.25;100.00;52133.00;2097252;28;20033;-72
2023/08/10 00:39:49;;;;;;;9.30;3.85;;;;;;;-146.25;100.00;52153.28;2096819;28;20052;-72
2023/08/10 00:40:52;;;;;;;10.15;3.92;;;;;;;-146.25;100.00;52161.38;2096719;28;20048;-72
2023/08/10 00:41:54;;;;;;;7.97;4.10;;;;;;;-146.25;100.00;52189.78;2095581;28;27159;-72
2023/08/10 00:42:58;;;;;;;12.68;4.88;;;;;;;-146.25;100.00;52124.91;2079367;28;29619;-71
2023/08/10 00:44:00;;;;;;;12.10;4.60;;;;;;;-146.25;100.00;52157.34;2087591;28;32587;-72
2023/08/10 00:45:01;;;;;;;11.35;4.43;;;;;;;-146.25;100.00;52151.25;2096663;28;20671;-72
2023/08/10 00:46:05;;;;;;;8.00;4.53;;;;;;;-146.25;100.00;52151.25;2103988;28;20107;-72
2023/08/10 00:47:07;;;;;;;8.65;3.80;;;;;;;-146.25;100.00;52141.13;2103894;28;33045;-72
2023/08/10 00:48:11;;;;;;;8.75;4.45;;;;;;;-146.25;100.00;52181.66;2095487;28;20155;-73
2023/08/10 00:49:13;;;;;;;11.90;4.55;;;;;;;-146.25;100.00;52189.78;2080129;28;20038;-73
2023/08/10 00:50:16;;;;;;;8.05;4.65;;;;;;;-146.25;100.00;52133.00;2096610;28;20044;-73
2023/08/10 00:51:18;;;;;;;11.18;4.47;;;;;;;-146.25;100.00;52145.16;2096373;28;28002;-73
2023/08/10 00:52:20;;;;;;;9.60;5.35;;;;;;;-146.25;100.00;52189.78;2095745;28;29561;-73
2023/08/10 00:53:22;;;;;;;12.10;4.97;;;;;;;-146.25;100.00;52128.94;2096373;28;20150;-74
2023/08/10 00:54:27;;;;;;;10.48;5.28;;;;;;;-146.25;100.00;52155.31;2096190;28;20135;-72
2023/08/10 00:55:30;;;;;;;12.35;5.22;;;;;;;-146.25;100.00;52157.34;2097096;28;20037;-72
2023/08/10 00:56:31;;;;;;;11.10;5.53;;;;;;;-146.25;100.00;52139.09;2103539;28;30438;-73
2023/08/10 00:57:33;;;;;;;9.35;4.40;;;;;;;-146.25;100.00;52153.28;2096034;28;25254;-73
2023/08/10 00:58:36;;;;;;;10.98;4.63;;;;;;;-146.25;100.00;52169.50;2087237;28;27465;-73
2023/08/10 00:59:40;;;;;;;13.32;5.32;;;;;;;-146.25;100.00;52181.66;2095810;28;32917;-73
2023/08/10 01:00:41;;;;;;;13.75;5.70;;;;;;;-146.25;100.00;52161.38;2095998;28;28318;-74
2023/08/10 01:01:46;;;;;;;9.77;4.57;;;;;;;-146.25;100.00;52173.56;2096273;28;36898;-73
2023/08/10 01:02:48;;;;;;;6.57;4.47;;;;;;;-146.25;100.00;52137.06;2095991;28;20902;-73
2023/08/10 01:03:51;;;;;;;12.35;5.60;;;;;;;-146.25;100.00;52155.31;2096825;28;20130;-73
2023/08/10 01:04:54;;;;;;;9.75;4.90;;;;;;;-146.25;100.00;52137.06;2096374;28;20096;-72
2023/08/10 01:06:05;;;;;;;11.93;5.63;;;;;;;-146.25;100.00;52165.44;2096025;28;20167;-73
2023/08/10 01:07:17;;;;;;;;;;;;;;;-146.25;100.00;52161.38;2096347;28;30055;-73
2023/08/10 01:08:29;;;;;;;13.75;4.93;;;;;;;-146.25;100.00;52161.38;2097078;28;20058;-73
2023/08/10 01:09:49;;;;;;;8.93;5.20;;;;;;;-146.25;100.00;52155.31;2096347;28;33466;-73
2023/08/10 01:11:05;;;;;;;8.38;4.50;;;;;;;-146.25;100.00;52173.56;2086865;28;28577;-73
2023/08/10 01:12:17;;;;;;;13.73;6.00;;;;;;;-146.25;100.00;52169.50;2084733;28;31768;-73
2023/08/10 01:13:34;;;;;;;11.20;5.65;;;;;;;-146.25;100.00;52112.72;2098098;28;23472;-73
2023/08/10 01:15:13;;;;;;;11.57;5.35;;;;;;;-146.25;100.00;52133.00;2097689;28;20037;-73
2023/08/10 01:16:16;;;;;;;9.48;5.05;;;;;;;-146.25;100.00;52167.47;2070679;28;33996;-73
2023/08/10 01:17:27;;;;;;;9.23;5.05;;;;;;;-146.25;100.00;52135.03;2096516;28;28869;-73
2023/08/10 01:18:32;;;;;;;10.18;4.90;;;;;;;-146.25;100.00;52120.84;2082570;28;20123;-73
2023/08/10 01:19:38;;;;;;;13.07;4.97;;;;;;;-146.25;100.00;52133.00;2074456;28;20124;-70
2023/08/10 01:20:43;;;;;;;7.40;4.10;;;;;;;-146.25;100.00;52133.00;2082640;28;32816;-70
2023/08/10 01:22:13;;;;;;;8.75;4.53;;;;;;;-146.25;100.00;52183.69;2097119;28;32327;-70
2023/08/10 01:23:44;;;;;;;;;;;;;;;-146.25;100.00;52191.81;2088556;28;38393;-70
2023/08/10 01:25:06;;;;;;;8.27;4.25;;;;;;;-146.25;100.00;52155.31;2094969;28;30415;-70
2023/08/10 01:26:10;;;;;;;14.70;5.47;;;;;;;-146.25;100.00;52167.47;2097676;28;20041;-70
2023/08/10 01:27:14;;;;;;;9.68;4.45;;;;;;;-146.25;100.00;52179.63;2081486;28;29801;-69
2023/08/10 01:28:17;;;;;;;6.53;4.22;;;;;;;-146.25;100.00;52159.34;2081407;28;31816;-70
2023/08/10 01:29:23;;;;;;;8.75;4.85;;;;;;;-146.25;100.00;52149.22;2089424;28;25128;-71
2023/08/10 01:30:27;;;;;;;7.95;4.85;;;;;;;-146.25;100.00;52157.34;2098352;28;30163;-70
2023/08/10 01:31:29;;;;;;;8.80;5.10;;;;;;;-146.25;100.00;52137.06;2104329;28;23525;-71
2023/08/10 01:32:32;;;;;;;10.32;4.95;;;;;;;-146.25;100.00;52177.59;2098139;28;20044;-70
2023/08/10 01:33:38;;;;;;;12.32;5.22;;;;;;;-146.25;100.00;52175.56;2097557;28;28692;-71
2023/08/10 01:34:39;;;;;;;15.07;5.65;;;;;;;-146.25;100.00;52173.56;2097407;28;23552;-71
2023/08/10 01:35:41;;;;;;;7.40;4.63;;;;;;;-146.25;100.00;52163.41;2097329;28;20148;-68
2023/08/10 01:36:46;;;;;;;9.25;5.68;;;;;;;-146.25;100.00;52141.13;2097269;28;26982;-70
2023/08/10 01:37:48;;;;;;;13.20;5.47;;;;;;;-146.25;100.00;52141.13;2089206;28;20045;-70
2023/08/10 01:38:54;;;;;;;7.97;4.93;;;;;;;-146.25;100.00;52169.50;2097447;28;20033;-71
2023/08/10 01:39:56;;;;;;;8.73;5.30;;;;;;;-146.25;100.00;52169.50;2096689;28;26428;-70
2023/08/10 01:40:59;;;;;;;8.77;4.47;;;;;;;-146.25;100.00;52177.59;2089568;28;20068;-70
2023/08/10 01:42:01;;;;;;;9.77;4.93;;;;;;;-146.25;100.00;52201.94;2097210;28;20095;-70
2023/08/10 01:43:04;;;;;;;9.57;4.97;;;;;;;-146.25;100.00;52137.06;2096645;28;32682;-71
2023/08/10 01:44:06;;;;;;;6.85;4.72;;;;;;;-146.25;100.00;52157.34;2096622;28;28559;-71
2023/08/10 01:45:08;;;;;;;9.77;5.50;;;;;;;-146.25;100.00;52181.66;2097656;28;25905;-69
2023/08/10 01:46:17;;;;;;;8.90;4.72;;;;;;;-146.25;100.00;52183.69;2097425;28;27672;-70
2023/08/10 01:48:05;;;;;;;11.15;6.50;;;;;;;-146.25;100.00;52137.06;2097788;28;20037;-71
2023/08/10 01:49:11;;;;;;;10.85;5.47;;;;;;;-146.25;100.00;52246.53;2104770;28;29247;-69
2023/08/10 01:50:16;;;;;;;8.63;4.75;;;;;;;-146.25;100.00;52130.97;2104328;28;32187;-71
2023/08/10 01:51:23;;;;;;;12.23;5.20;;;;;;;-146.25;100.00;52171.53;2104960;28;20032;-71
2023/08/10 01:52:33;;;;;;;9.73;5.60;;;;;;;-146.25;100.00;52181.66;2097268;28;30745;-71
2023/08/10 01:53:36;;;;;;;12.00;5.72;;;;;;;-146.25;100.00;52137.06;2105179;28;20920;-70
2023/08/10 01:54:39;;;;;;;11.90;5.65;;;;;;;-146.25;100.00;52159.34;2105249;28;20049;-70
2023/08/10 01:55:42;;;;;;;12.50;5.90;;;;;;;-146.25;100.00;52130.97;2097329;28;28119;-71
2023/08/10 01:56:44;;;;;;;9.15;5.55;;;;;;;-146.25;100.00;52173.56;2096960;28;25701;-70
2023/08/10 01:57:45;;;;;;;9.13;4.97;;;;;;;-146.25;100.00;52163.41;2097221;28;20131;-70
2023/08/10 01:58:47;;;;;;;9.90;5.00;;;;;;;-146.25;100.00;52218.16;2088239;28;28533;-71
2023/08/10 01:59:49;;;;;;;9.65;5.68;;;;;;;-146.25;100.00;52173.56;2072851;28;20054;-71
2023/08/10 02:00:51;;;;;;;8.55;4.85;;;;;;;-146.25;100.00;52139.09;2080060;28;27708;-71
2023/08/10 02:01:53;;;;;;;14.82;5.53;;;;;;;-146.25;100.00;52185.72;2097584;28;27011;-73
2023/08/10 02:02:57;;;;;;;9.45;5.35;;;;;;;-146.25;100.00;52171.53;2097339;28;30161;-73
2023/08/10 02:03:59;;;;;;;13.35;5.18;;;;;;;-146.25;100.00;52139.09;2097472;28;36141;-73
2023/08/10 02:05:00;;;;;;;12.98;5.15;;;;;;;-146.25;100.00;52157.34;2096768;28;20041;-73
2023/08/10 02:06:02;;;;;;;13.45;6.15;;;;;;;-146.25;100.00;52137.06;2096688;28;28640;-74
2023/08/10 02:07:04;;;;;;;11.38;6.03;;;;;;;-146.25;100.00;52161.38;2096597;28;30623;-70
2023/08/10 02:08:07;;;;;;;10.40;5.40;;;;;;;-146.25;100.00;52159.34;2097293;28;23281;-69
2023/08/10 02:09:09;;;;;;;10.10;5.03;;;;;;;-146.25;100.00;52143.13;2097269;28;20813;-69
2023/08/10 02:10:10;;;;;;;10.95;5.68;;;;;;;-146.25;100.00;52177.59;2097603;28;23006;-69
2023/08/10 02:11:12;;;;;;;13.00;5.65;;;;;;;-146.25;100.00;52197.88;2095734;28;31525;-68
2023/08/10 02:12:14;;;;;;;13.57;6.20;;;;;;;-146.25;100.00;52195.84;2097017;28;24933;-69
2023/08/10 02:13:17;;;;;;;12.73;6.35;;;;;;;-146.25;100.00;52155.31;2096355;28;20980;-69
2023/08/10 02:14:19;;;;;;;11.65;5.90;;;;;;;-146.25;100.00;52193.81;2088637;28;22887;-69
2023/08/10 02:15:21;;;;;;;15.95;5.75;;;;;;;-146.25;100.00;52151.25;2096990;28;20156;-69
2023/08/10 02:16:23;;;;;;;12.45;5.75;;;;;;;-146.25;100.00;52169.50;2088695;28;20953;-69
2023/08/10 02:17:28;;;;;;;7.65;4.55;;;;;;;-146.25;100.00;52183.69;2088039;28;27376;-69
2023/08/10 02:18:30;;;;;;;10.95;5.22;;;;;;;-146.25;100.00;52177.59;2096635;28;34506;-69
2023/08/10 02:19:32;;;;;;;11.60;5.68;;;;;;;-146.25;100.00;52163.41;2095701;28;23332;-68
2023/08/10 02:20:33;;;;;;;8.43;5.53;;;;;;;-146.25;100.00;52145.16;2089374;28;30073;-69
2023/08/10 02:21:35;;;;;;;12.73;5.57;;;;;;;-146.25;100.00;52183.69;2089251;28;20041;-69
2023/08/10 02:22:53;;;;;;;14.40;5.00;;;;;;;-146.25;100.00;52141.13;2088861;28;31448;-69
2023/08/10 02:23:55;;;;;;;12.15;6.20;;;;;;;-146.25;100.00;52128.94;2089232;28;32064;-69
2023/08/10 02:24:57;;;;;;;15.88;5.60;;;;;;;-146.25;100.00;52159.34;2089300;28;20201;-69
2023/08/10 02:25:59;;;;;;;10.82;5.80;;;;;;;-146.25;100.00;52153.28;2088231;28;36938;-69
2023/08/10 02:27:02;;;;;;;17.27;6.63;;;;;;;-146.25;100.00;52167.47;2089034;28;26762;-69
2023/08/10 02:28:06;;;;;;;14.20;5.70;;;;;;;-146.25;100.00;52163.41;2088040;28;20882;-72
2023/08/10 02:29:07;;;;;;;12.27;5.30;;;;;;;-146.25;100.00;52169.50;2087785;28;33092;-72
2023/08/10 02:30:10;;;;;;;11.10;5.53;;;;;;;-146.25;100.00;52189.78;2088132;28;31464;-71
2023/08/10 02:31:12;;;;;;;8.23;4.88;;;;;;;-146.25;100.00;52137.06;2096151;28;29111;-71
2023/08/10 02:32:16;;;;;;;13.38;6.28;;;;;;;-146.25;100.00;52167.47;2088445;28;20133;-72
2023/08/10 02:33:18;;;;;;;10.90;5.68;;;;;;;-146.25;100.00;52141.13;2079721;28;29321;-71
2023/08/10 02:34:20;;;;;;;10.18;5.65;;;;;;;-146.25;100.00;52197.88;2088271;28;27787;-72
2023/08/10 02:35:22;;;;;;;14.18;6.28;;;;;;;-146.25;100.00;52197.88;2088671;28;33453;-72
2023/08/10 02:36:28;;;;;;;12.27;6.28;;;;;;;-146.25;100.00;52153.28;2088500;28;20139;-72
2023/08/10 02:37:34;;;;;;;7.40;5.57;;;;;;;-146.25;100.00;52173.56;2088513;28;28820;-72
2023/08/10 02:38:36;;;;;;;15.80;5.25;;;;;;;-146.25;100.00;52197.88;2079976;28;26495;-73
2023/08/10 02:39:37;;;;;;;10.30;4.72;;;;;;;-146.25;100.00;52141.13;2072894;28;23100;-72
2023/08/10 02:40:41;;;;;;;8.07;4.78;;;;;;;-146.25;100.00;52153.28;2071725;28;31464;-71
2023/08/10 02:41:44;;;;;;;9.30;4.68;;;;;;;-146.25;100.00;52183.69;2074056;28;30898;-72
2023/08/10 02:42:45;;;;;;;8.43;4.63;;;;;;;-146.25;100.00;52203.97;2087920;28;35908;-72
2023/08/10 02:43:47;;;;;;;10.10;5.10;;;;;;;-146.25;100.00;52163.41;2079800;28;32830;-72
2023/08/10 02:44:51;;;;;;;10.13;4.40;;;;;;;-146.25;100.00;52165.44;2088921;28;20040;-73
2023/08/10 02:45:52;;;;;;;9.85;5.00;;;;;;;-146.25;100.00;52155.31;2096632;28;30519;-73
2023/08/10 02:46:54;;;;;;;9.32;4.93;;;;;;;-146.25;100.00;52177.59;2088245;28;23300;-69
2023/08/10 02:47:56;;;;;;;10.10;4.63;;;;;;;-146.25;100.00;52175.56;2088170;28;30277;-71
2023/08/10 02:48:58;;;;;;;12.00;5.00;;;;;;;-146.25;100.00;52173.56;2087904;28;28294;-71
2023/08/10 02:50:00;;;;;;;15.32;7.18;;;;;;;-146.25;100.00;52167.47;2080233;28;28160;-71
2023/08/10 02:51:03;;;;;;;12.32;6.75;;;;;;;-146.25;100.00;52165.44;2088033;28;36075;-71
2023/08/10 02:52:06;;;;;;;13.25;6.55;;;;;;;-146.25;100.00;52163.41;2089227;28;20763;-69
2023/08/10 02:53:10;;;;;;;13.20;6.70;;;;;;;-146.25;100.00;52183.69;2088459;28;28969;-70
2023/08/10 02:54:12;;;;;;;10.00;6.05;;;;;;;-146.25;100.00;52141.13;2089215;28;20354;-70
2023/08/10 02:55:17;;;;;;;11.30;5.75;;;;;;;-146.25;100.00;52187.75;2088601;28;33381;-69
2023/08/10 02:56:19;;;;;;;12.23;6.07;;;;;;;-146.25;100.00;52151.25;2088432;28;20149;-69
2023/08/10 02:57:21;;;;;;;10.48;5.32;;;;;;;-146.25;100.00;52171.53;2080297;28;20046;-69
2023/08/10 02:58:23;;;;;;;11.45;5.97;;;;;;;-146.25;100.00;52161.38;2088674;28;20053;-71
2023/08/10 02:59:25;;;;;;;12.35;6.95;;;;;;;-146.25;100.00;52159.34;2088690;28;26623;-71
2023/08/10 03:00:26;;;;;;;9.60;5.25;;;;;;;-146.25;100.00;52210.03;2089187;28;21017;-71
2023/08/10 03:01:28;;;;;;;11.23;5.68;;;;;;;-146.25;100.00;52137.06;2087778;28;20029;-70
2023/08/10 03:02:30;;;;;;;12.32;6.78;;;;;;;-146.25;100.00;52167.47;2088461;28;20096;-70
2023/08/10 03:03:35;;;;;;;12.45;6.95;;;;;;;-146.25;100.00;52155.31;2080517;28;20041;-70
2023/08/10 03:04:39;;;;;;;11.70;6.47;;;;;;;-146.25;100.00;52157.34;2080190;28;20918;-69
2023/08/10 03:05:44;;;;;;;13.98;8.15;;;;;;;-146.25;100.00;52173.56;2088234;28;28708;-69
2023/08/10 03:06:46;;;;;;;14.10;6.75;;;;;;;-146.25;100.00;52169.50;2088261;28;20152;-69
2023/08/10 03:07:50;;;;;;;10.90;6.55;;;;;;;-146.25;100.00;52133.00;2088242;28;20907;-68
2023/08/10 03:08:52;;;;;;;16.35;7.53;;;;;;;-146.25;100.00;52163.41;2089712;28;20025;-69
2023/08/10 03:09:54;;;;;;;14.00;7.68;;;;;;;-146.25;100.00;52189.78;2088142;28;20053;-69
2023/08/10 03:10:58;;;;;;;18.10;7.07;;;;;;;-146.25;100.00;52185.72;2088178;28;20037;-70
2023/08/10 03:12:03;;;;;;;14.23;7.10;;;;;;;-146.25;100.00;52157.34;2088495;28;20898;-72
2023/08/10 03:13:05;;;;;;;10.45;6.38;;;;;;;-146.25;100.00;52199.91;2088302;28;20526;-71
2023/08/10 03:14:07;;;;;;;10.25;5.55;;;;;;;-146.25;100.00;52185.72;2088273;28;23709;-72
2023/08/10 03:15:11;;;;;;;11.65;5.82;;;;;;;-146.25;100.00;52193.81;2088420;28;20164;-72
2023/08/10 03:16:13;;;;;;;10.55;6.20;;;;;;;-146.25;100.00;52163.41;2088040;28;20041;-71
2023/08/10 03:17:15;;;;;;;17.60;7.32;;;;;;;-146.25;100.00;52163.41;2088442;28;20037;-71
2023/08/10 03:18:17;;;;;;;12.38;7.15;;;;;;;-146.25;100.00;52173.56;2087709;28;23082;-73
2023/08/10 03:19:19;;;;;;;9.30;6.90;;;;;;;-146.25;100.00;52124.91;2087784;28;20184;-73
2023/08/10 03:20:24;;;;;;;16.42;7.40;;;;;;;-146.25;100.00;52189.78;2080151;28;20899;-73
2023/08/10 03:21:26;;;;;;;13.95;7.45;;;;;;;-146.25;100.00;52177.59;2088411;28;20069;-73
2023/08/10 03:22:28;;;;;;;10.52;7.13;;;;;;;-146.25;100.00;52169.50;2089628;28;20225;-73
2023/08/10 03:23:30;;;;;;;11.23;5.72;;;;;;;-146.25;100.00;52193.81;2088074;28;27575;-73
2023/08/10 03:24:35;;;;;;;15.55;7.60;;;;;;;-146.25;100.00;52181.66;2087859;28;20089;-74
2023/08/10 03:25:38;;;;;;;13.15;6.63;;;;;;;-146.25;100.00;52183.69;2088711;28;20049;-74
2023/08/10 03:26:42;;;;;;;18.17;9.10;;;;;;;-146.25;100.00;52157.34;2088416;28;20061;-74
2023/08/10 03:27:44;;;;;;;17.00;8.02;;;;;;;-146.25;100.00;52177.59;2088215;28;23620;-74
2023/08/10 03:28:49;;;;;;;16.50;7.40;;;;;;;-146.25;100.00;52203.97;2088112;28;20911;-74
2023/08/10 03:29:51;;;;;;;11.05;6.63;;;;;;;-146.25;100.00;52157.34;2096705;28;20898;-74
2023/08/10 03:30:54;;;;;;;10.40;6.05;;;;;;;-146.25;100.00;52159.34;2096908;28;20795;-74
2023/08/10 03:31:57;;;;;;;15.88;6.25;;;;;;;-146.25;100.00;52236.41;2080217;28;20049;-74
2023/08/10 03:32:59;;;;;;;12.52;7.72;;;;;;;-146.25;100.00;52173.56;2080380;28;20038;-73
2023/08/10 03:34:01;;;;;;;12.05;7.05;;;;;;;-146.25;100.00;52195.84;2088424;28;20049;-71
2023/08/10 03:35:03;;;;;;;14.68;7.25;;;;;;;-146.25;100.00;52187.75;2087843;28;20202;-72
2023/08/10 03:36:08;;;;;;;15.75;8.80;;;;;;;-146.25;100.00;52218.16;2088748;28;21056;-69
2023/08/10 03:37:10;;;;;;;14.60;8.27;;;;;;;-146.25;100.00;52177.59;2087804;28;20049;-69
2023/08/10 03:38:12;;;;;;;15.77;8.60;;;;;;;-146.25;100.00;52195.84;2088072;28;20108;-70
2023/08/10 03:39:17;;;;;;;8.52;6.72;;;;;;;-146.25;100.00;52218.16;2096698;28;20026;-70
2023/08/10 03:40:19;;;;;;;12.15;7.00;;;;;;;-146.25;100.00;52167.47;2103982;28;35498;-70
2023/08/10 03:41:20;;;;;;;15.18;7.45;;;;;;;-146.25;100.00;52177.59;2096414;28;20323;-70
2023/08/10 03:42:28;;;;;;;18.73;10.23;;;;;;;-146.25;100.00;52181.66;2088052;28;20057;-70
2023/08/10 03:43:31;;;;;;;16.98;10.48;;;;;;;-146.25;100.00;52226.25;2088994;28;21186;-70
2023/08/10 03:44:33;;;;;;;20.45;9.60;;;;;;;-146.25;100.00;52187.75;2088212;28;20036;-70
2023/08/10 03:45:34;;;;;;;12.50;8.40;;;;;;;-146.25;100.00;52191.81;2087700;28;27440;-70
2023/08/10 03:46:36;;;;;;;16.65;10.05;;;;;;;-146.25;100.00;52177.59;2088072;28;22552;-71
2023/08/10 03:47:38;;;;;;;18.00;11.02;;;;;;;-146.25;100.00;52203.97;2087920;28;20045;-70
2023/08/10 03:48:40;;;;;;;19.67;11.55;;;;;;;-146.25;100.00;52181.66;2096676;28;21241;-70
2023/08/10 03:49:44;;;;;;;21.42;11.40;;;;;;;-146.25;100.00;52181.66;2096338;28;20049;-70
2023/08/10 03:50:46;;;;;;;13.88;8.52;;;;;;;-146.25;100.00;52171.53;2096598;28;20164;-70
2023/08/10 03:51:52;;;;;;;16.63;10.13;;;;;;;-146.25;100.00;52161.38;2096745;28;20071;-71
2023/08/10 03:52:54;;;;;;;13.85;9.43;;;;;;;-146.25;100.00;52175.56;2096503;28;28255;-70
2023/08/10 03:53:55;;;;;;;18.58;11.40;;;;;;;-146.25;100.00;52183.69;2096753;28;28351;-70
2023/08/10 03:54:57;;;;;;;20.20;12.18;;;;;;;-146.25;100.00;52181.66;2096434;28;33984;-71
2023/08/10 03:56:01;;;;;;;18.02;12.02;;;;;;;-146.25;100.00;52187.75;2096326;28;20052;-71
2023/08/10 03:57:06;;;;;;;17.05;11.20;;;;;;;-146.25;100.00;52143.13;2088732;28;20088;-70
2023/08/10 03:58:08;;;;;;;20.00;12.95;;;;;;;-146.25;100.00;52173.56;2087908;28;20103;-70
2023/08/10 03:59:11;;;;;;;17.02;11.98;;;;;;;-146.25;100.00;52181.66;2079994;28;20177;-70
2023/08/10 04:00:14;;;;;;;19.75;11.20;;;;;;;-146.25;100.00;52210.03;2080116;28;30236;-70
2023/08/10 04:01:18;;;;;;;24.10;11.80;;;;;;;-146.25;100.00;52208.03;2096534;28;20122;-70
2023/08/10 04:02:22;;;;;;;20.10;12.82;;;;;;;-146.25;100.00;52167.47;2104954;28;20491;-71
2023/08/10 04:03:25;;;;;;;20.38;14.38;;;;;;;-146.25;100.00;52195.84;2096371;28;21016;-72
2023/08/10 04:04:26;;;;;;;17.95;11.23;;;;;;;-146.25;100.00;52206.00;2087810;28;20815;-72
2023/08/10 04:05:28;;;;;;;22.33;13.57;;;;;;;-146.25;100.00;52208.03;2087758;28;21191;-72
2023/08/10 04:06:30;;;;;;;21.60;12.85;;;;;;;-146.25;100.00;52193.81;2096237;28;20849;-72
2023/08/10 04:07:39;;;;;;;16.77;11.27;;;;;;;-146.25;100.00;52210.03;2095797;28;36052;-72
2023/08/10 04:08:41;;;;;;;21.20;11.70;;;;;;;-146.25;100.00;52197.88;2096809;28;20033;-72
2023/08/10 04:09:47;;;;;;;20.63;11.73;;;;;;;-146.25;100.00;52173.56;2088948;28;20041;-71
2023/08/10 04:10:49;;;;;;;19.92;11.63;;;;;;;-146.25;100.00;52157.34;2096652;28;24039;-71
2023/08/10 04:11:52;;;;;;;14.45;10.35;;;;;;;-146.25;100.00;52195.84;2096018;28;20048;-72
2023/08/10 04:12:53;;;;;;;13.20;10.45;;;;;;;-146.25;100.00;52195.84;2095720;28;33126;-72
2023/08/10 04:13:55;;;;;;;14.93;10.23;;;;;;;-146.25;100.00;52175.56;2104209;28;25221;-71
2023/08/10 04:14:57;;;;;;;9.27;8.20;;;;;;;-146.25;100.00;52161.38;2096090;28;20566;-72
2023/08/10 04:16:02;;;;;;;16.27;10.13;;;;;;;-146.25;100.00;52187.75;2097026;28;20075;-72
2023/08/10 04:17:04;;;;;;;16.13;9.15;;;;;;;-146.25;100.00;52181.66;2104433;28;20164;-72
2023/08/10 04:18:06;;;;;;;22.48;10.75;;;;;;;-146.25;100.00;52197.88;2096296;28;20831;-70
2023/08/10 04:19:08;;;;;;;21.63;12.30;;;;;;;-146.25;100.00;52208.03;2104359;28;21024;-72
2023/08/10 04:20:11;;;;;;;17.27;10.95;;;;;;;-146.25;100.00;52206.00;2104374;28;20040;-72
2023/08/10 04:21:13;;;;;;;14.95;10.30;;;;;;;-146.25;100.00;52212.06;2095745;28;31786;-71
2023/08/10 04:22:15;;;;;;;15.98;9.95;;;;;;;-146.25;100.00;52210.03;2096007;28;36142;-71
2023/08/10 04:23:19;;;;;;;12.77;8.60;;;;;;;-146.25;100.00;52216.13;2096146;28;36446;-71
2023/08/10 04:24:21;;;;;;;15.90;10.27;;;;;;;-146.25;100.00;52193.81;2096586;28;28855;-71
2023/08/10 04:25:22;;;;;;;22.60;11.95;;;;;;;-146.25;100.00;52155.31;2096320;28;36573;-71
2023/08/10 04:26:24;;;;;;;12.02;9.05;;;;;;;-146.25;100.00;52165.44;2096780;28;20092;-71
2023/08/10 04:27:26;;;;;;;14.57;9.95;;;;;;;-146.25;100.00;52228.28;2096086;28;37118;-76
2023/08/10 04:28:30;;;;;;;15.38;10.02;;;;;;;-146.25;100.00;52214.09;2096028;28;29933;-73
2023/08/10 04:29:32;;;;;;;15.63;10.10;;;;;;;-146.25;100.00;52206.00;2095892;28;35954;-74
2023/08/10 04:30:34;;;;;;;12.95;10.10;;;;;;;-146.25;100.00;52169.50;2095621;28;35989;-71
2023/08/10 04:31:35;;;;;;;17.52;10.07;;;;;;;-146.25;100.00;52212.06;2096201;28;35835;-76
2023/08/10 04:32:38;;;;;;;16.25;10.52;;;;;;;-146.25;100.00;52189.78;2095986;28;34477;-72
2023/08/10 04:33:40;;;;;;;17.92;12.05;;;;;;;-146.25;100.00;52208.03;2096245;28;39116;-72
2023/08/10 04:34:42;;;;;;;15.00;10.02;;;;;;;-146.25;100.00;52189.78;2096307;28;33478;-74
2023/08/10 04:35:43;;;;;;;12.43;9.57;;;;;;;-146.25;100.00;52212.06;2096030;28;35762;-70
2023/08/10 04:36:45;;;;;;;10.85;9.32;;;;;;;-146.25;100.00;52226.25;2095516;28;36464;-75
2023/08/10 04:37:48;;;;;;;24.20;11.45;;;;;;;-146.25;100.00;52161.38;2087195;28;32693;-71
2023/08/10 04:38:51;;;;;;;13.07;9.05;;;;;;;-146.25;100.00;52201.94;2095713;28;32058;-70
2023/08/10 04:39:53;;;;;;;15.70;8.00;;;;;;;-146.25;100.00;52181.66;2096064;28;33847;-71
2023/08/10 04:40:55;;;;;;;12.05;8.52;;;;;;;-146.25;100.00;52226.25;2103877;28;36996;-71
2023/08/10 04:41:57;;;;;;;14.63;9.23;;;;;;;-146.25;100.00;52191.81;2103980;28;31259;-71
2023/08/10 04:42:59;;;;;;;16.30;8.25;;;;;;;-146.25;100.00;52193.81;2095698;28;32860;-71
2023/08/10 04:44:04;;;;;;;13.65;8.02;;;;;;;-146.25;100.00;52189.78;2096523;28;20045;-71
2023/08/10 04:45:09;;;;;;;9.57;6.40;;;;;;;-146.25;100.00;52195.84;2096468;28;31189;-71
2023/08/10 04:46:11;;;;;;;11.98;7.45;;;;;;;-146.25;100.00;52201.94;2095969;28;36700;-71
2023/08/10 04:47:13;;;;;;;8.25;6.25;;;;;;;-146.25;100.00;52210.03;2094805;28;36212;-70